York, PA (17404)

14:55 EDT le 27 septembre 2016 (GMT -0400)
Hearthridge Lane | | Change Station

Alt. 479 ft 40.00 °N, 76.75 °W | Updated 12 minutes ago

Clear
Ciel dégagé
77.1 ° F
Paraît 78 ° F
N
5.0
Vent Variable Vent de OSO
Gusts 7.0 mph

Aujourd'hui
Haut(e) -- | Bas -- ° F
--% Risque de précip.
Hier
Haut(e) -- | Bas -- ° F
Precip. -- pouce
Pression 29.90 pouce
Visibilité 10.0 Miles terrestres
Nuages Ciel dégagé
indice de chaleur 78 ° F
Point de rosée 47 ° F
Humidité 35%
Précipitations 0.20 pouce
Profondeur de la couche neigeuse Non disponible.
6:59 AM 6:55 PM
Lune descendante, 10% visible
METAR KTHV 271853Z AUTO 28005KT 10SM CLR 23/07 A2990 RMK AO2 SLP125 T02280072
Pression 29.90 pouce
Visibilité 10.0 Miles terrestres
Nuages Ciel dégagé
indice de chaleur 78 ° F
Point de rosée 47 ° F
Humidité 35%
Précipitations 0.20 pouce
Profondeur de la couche neigeuse Non disponible.
6:59 AM 6:55 PM
Lune descendante, 10% visible
METAR KTHV 271853Z AUTO 28005KT 10SM CLR 23/07 A2990 RMK AO2 SLP125 T02280072

10-Day Weather Forecast

Almanac

Astronomie

Sep. 27, 2016 Lever Coucher
Temps réel
Crépuscule civil
Crépuscule nautique
Crépuscule astronomique
Lune
Durée de lumière visible
Longueur du jour
Tomorrow will be .
, % of the Moon is Illuminated

Extrêmes aujourd'hui

State Highs State Lows

Community

WunderPhotos

Upload Photos

1,942,156 Photos téléchargées !

WunderBlog® & News

Nearby

Qualité de l'air

  Qualité de l'air Indice de la qualité de l'air Polluant
Not available.

Épaisseur de neige

Station Depth Altitude

Activité sismique

Ville Distance Mag. Time & Date
Minimum magnitude displayed is 2.5.

Températures des eaux côtières

Lieu Température

Stations

Stations météo à proximité

Emplacement de la station Température Refroidissement éolien Point de rosée Humidité Vent Precip. Alt. Mise à jour Type
                   

Watches & Warnings

There are currently no watches in effect.